sensor_id;sensor_type;location;lat;lon;timestamp;pressure;altitude;pressure_sealevel;temperature
23208;BMP180;11773;52.570;13.052;2022-07-09T00:00:06;102209.00;;;23.20
23208;BMP180;11773;52.570;13.052;2022-07-09T00:02:36;102227.00;;;23.20
23208;BMP180;11773;52.570;13.052;2022-07-09T00:05:07;102209.00;;;23.10
23208;BMP180;11773;52.570;13.052;2022-07-09T00:07:38;102221.00;;;23.10
23208;BMP180;11773;52.570;13.052;2022-07-09T00:10:08;102223.00;;;23.10
23208;BMP180;11773;52.570;13.052;2022-07-09T00:12:38;102228.00;;;23.00
23208;BMP180;11773;52.570;13.052;2022-07-09T00:15:08;102233.00;;;23.00
23208;BMP180;11773;52.570;13.052;2022-07-09T00:17:38;102225.00;;;23.00
23208;BMP180;11773;52.570;13.052;2022-07-09T00:20:09;102218.00;;;22.90
23208;BMP180;11773;52.570;13.052;2022-07-09T00:22:38;102224.00;;;22.90
23208;BMP180;11773;52.570;13.052;2022-07-09T00:25:08;102223.00;;;22.90
23208;BMP180;11773;52.570;13.052;2022-07-09T00:27:37;102219.00;;;22.80
23208;BMP180;11773;52.570;13.052;2022-07-09T00:30:08;102229.00;;;22.80
23208;BMP180;11773;52.570;13.052;2022-07-09T00:32:37;102236.00;;;22.70
23208;BMP180;11773;52.570;13.052;2022-07-09T00:35:08;102224.00;;;22.70
23208;BMP180;11773;52.570;13.052;2022-07-09T00:37:37;102233.00;;;22.60
23208;BMP180;11773;52.570;13.052;2022-07-09T00:40:08;102229.00;;;22.60
23208;BMP180;11773;52.570;13.052;2022-07-09T00:42:37;102228.00;;;22.50
23208;BMP180;11773;52.570;13.052;2022-07-09T00:45:07;102219.00;;;22.50
23208;BMP180;11773;52.570;13.052;2022-07-09T00:47:37;102208.00;;;22.40
23208;BMP180;11773;52.570;13.052;2022-07-09T00:50:07;102215.00;;;22.40
23208;BMP180;11773;52.570;13.052;2022-07-09T00:52:39;102225.00;;;22.30
23208;BMP180;11773;52.570;13.052;2022-07-09T00:55:10;102220.00;;;22.30
23208;BMP180;11773;52.570;13.052;2022-07-09T00:57:42;102213.00;;;22.20
23208;BMP180;11773;52.570;13.052;2022-07-09T01:00:12;102208.00;;;22.10
23208;BMP180;11773;52.570;13.052;2022-07-09T01:02:42;102212.00;;;22.10
23208;BMP180;11773;52.570;13.052;2022-07-09T01:05:12;102211.00;;;22.00
23208;BMP180;11773;52.570;13.052;2022-07-09T01:07:41;102211.00;;;22.00
23208;BMP180;11773;52.570;13.052;2022-07-09T01:10:11;102204.00;;;21.90
23208;BMP180;11773;52.570;13.052;2022-07-09T01:12:41;102216.00;;;21.90
23208;BMP180;11773;52.570;13.052;2022-07-09T01:15:10;102220.00;;;21.80
23208;BMP180;11773;52.570;13.052;2022-07-09T01:17:41;102212.00;;;21.80
23208;BMP180;11773;52.570;13.052;2022-07-09T01:20:11;102216.00;;;21.80
23208;BMP180;11773;52.570;13.052;2022-07-09T01:22:40;102209.00;;;21.80
23208;BMP180;11773;52.570;13.052;2022-07-09T01:25:11;102205.00;;;21.80
23208;BMP180;11773;52.570;13.052;2022-07-09T01:27:43;102205.00;;;21.70
23208;BMP180;11773;52.570;13.052;2022-07-09T01:30:23;102202.00;;;21.70
23208;BMP180;11773;52.570;13.052;2022-07-09T01:32:55;102188.00;;;21.70
23208;BMP180;11773;52.570;13.052;2022-07-09T01:35:25;102197.00;;;21.70
23208;BMP180;11773;52.570;13.052;2022-07-09T01:37:55;102200.00;;;21.70
23208;BMP180;11773;52.570;13.052;2022-07-09T01:40:24;102185.00;;;21.60
23208;BMP180;11773;52.570;13.052;2022-07-09T01:42:54;102186.00;;;21.60
23208;BMP180;11773;52.570;13.052;2022-07-09T01:45:24;102185.00;;;21.60
23208;BMP180;11773;52.570;13.052;2022-07-09T01:47:53;102186.00;;;21.50
23208;BMP180;11773;52.570;13.052;2022-07-09T01:50:23;102190.00;;;21.50
23208;BMP180;11773;52.570;13.052;2022-07-09T01:52:52;102190.00;;;21.50
23208;BMP180;11773;52.570;13.052;2022-07-09T01:55:22;102176.00;;;21.50
23208;BMP180;11773;52.570;13.052;2022-07-09T01:57:51;102180.00;;;21.50
23208;BMP180;11773;52.570;13.052;2022-07-09T02:00:21;102163.00;;;21.40
23208;BMP180;11773;52.570;13.052;2022-07-09T02:02:51;102175.00;;;21.40
23208;BMP180;11773;52.570;13.052;2022-07-09T02:05:21;102166.00;;;21.40
23208;BMP180;11773;52.570;13.052;2022-07-09T02:07:51;102169.00;;;21.40
23208;BMP180;11773;52.570;13.052;2022-07-09T02:10:20;102162.00;;;21.30
23208;BMP180;11773;52.570;13.052;2022-07-09T02:12:50;102154.00;;;21.30
23208;BMP180;11773;52.570;13.052;2022-07-09T02:15:20;102164.00;;;21.30
23208;BMP180;11773;52.570;13.052;2022-07-09T02:17:50;102159.00;;;21.30
23208;BMP180;11773;52.570;13.052;2022-07-09T02:20:20;102158.00;;;21.30
23208;BMP180;11773;52.570;13.052;2022-07-09T02:22:49;102170.00;;;21.20
23208;BMP180;11773;52.570;13.052;2022-07-09T02:25:19;102155.00;;;21.20
23208;BMP180;11773;52.570;13.052;2022-07-09T02:27:48;102153.00;;;21.20
23208;BMP180;11773;52.570;13.052;2022-07-09T02:30:18;102145.00;;;21.20
23208;BMP180;11773;52.570;13.052;2022-07-09T02:32:47;102150.00;;;21.20
23208;BMP180;11773;52.570;13.052;2022-07-09T02:35:17;102140.00;;;21.20
23208;BMP180;11773;52.570;13.052;2022-07-09T02:37:46;102138.00;;;21.20
23208;BMP180;11773;52.570;13.052;2022-07-09T02:40:16;102147.00;;;21.20
23208;BMP180;11773;52.570;13.052;2022-07-09T02:42:45;102137.00;;;21.20
23208;BMP180;11773;52.570;13.052;2022-07-09T02:45:15;102140.00;;;21.20
23208;BMP180;11773;52.570;13.052;2022-07-09T02:47:44;102149.00;;;21.20
23208;BMP180;11773;52.570;13.052;2022-07-09T02:50:14;102133.00;;;21.20
23208;BMP180;11773;52.570;13.052;2022-07-09T02:52:43;102151.00;;;21.20
23208;BMP180;11773;52.570;13.052;2022-07-09T02:55:13;102155.00;;;21.20
23208;BMP180;11773;52.570;13.052;2022-07-09T02:57:43;102153.00;;;21.20
23208;BMP180;11773;52.570;13.052;2022-07-09T03:00:12;102147.00;;;21.20
23208;BMP180;11773;52.570;13.052;2022-07-09T03:02:43;102148.00;;;21.20
23208;BMP180;11773;52.570;13.052;2022-07-09T03:05:12;102160.00;;;21.20
23208;BMP180;11773;52.570;13.052;2022-07-09T03:07:42;102151.00;;;21.20
23208;BMP180;11773;52.570;13.052;2022-07-09T03:10:11;102158.00;;;21.20
23208;BMP180;11773;52.570;13.052;2022-07-09T03:12:41;102153.00;;;21.20
23208;BMP180;11773;52.570;13.052;2022-07-09T03:15:11;102157.00;;;21.20
23208;BMP180;11773;52.570;13.052;2022-07-09T03:17:42;102164.00;;;21.20
23208;BMP180;11773;52.570;13.052;2022-07-09T03:20:12;102155.00;;;21.20
23208;BMP180;11773;52.570;13.052;2022-07-09T03:22:42;102168.00;;;21.20
23208;BMP180;11773;52.570;13.052;2022-07-09T03:25:12;102164.00;;;21.30
23208;BMP180;11773;52.570;13.052;2022-07-09T03:27:41;102173.00;;;21.30
23208;BMP180;11773;52.570;13.052;2022-07-09T03:30:11;102173.00;;;21.30
23208;BMP180;11773;52.570;13.052;2022-07-09T03:32:40;102175.00;;;21.30
23208;BMP180;11773;52.570;13.052;2022-07-09T03:35:10;102163.00;;;21.30
23208;BMP180;11773;52.570;13.052;2022-07-09T03:37:39;102169.00;;;21.30
23208;BMP180;11773;52.570;13.052;2022-07-09T03:40:10;102171.00;;;21.30
23208;BMP180;11773;52.570;13.052;2022-07-09T03:42:39;102160.00;;;21.30
23208;BMP180;11773;52.570;13.052;2022-07-09T03:45:10;102158.00;;;21.30
23208;BMP180;11773;52.570;13.052;2022-07-09T03:47:39;102157.00;;;21.30
23208;BMP180;11773;52.570;13.052;2022-07-09T03:50:09;102142.00;;;21.30
23208;BMP180;11773;52.570;13.052;2022-07-09T03:52:40;102160.00;;;21.30
23208;BMP180;11773;52.570;13.052;2022-07-09T03:55:10;102152.00;;;21.40
23208;BMP180;11773;52.570;13.052;2022-07-09T03:57:40;102172.00;;;21.40
23208;BMP180;11773;52.570;13.052;2022-07-09T04:00:11;102157.00;;;21.40
23208;BMP180;11773;52.570;13.052;2022-07-09T04:02:41;102155.00;;;21.40
23208;BMP180;11773;52.570;13.052;2022-07-09T04:05:10;102154.00;;;21.40
23208;BMP180;11773;52.570;13.052;2022-07-09T04:07:40;102157.00;;;21.40
23208;BMP180;11773;52.570;13.052;2022-07-09T04:10:10;102148.00;;;21.40
23208;BMP180;11773;52.570;13.052;2022-07-09T04:12:40;102154.00;;;21.40
23208;BMP180;11773;52.570;13.052;2022-07-09T04:15:10;102152.00;;;21.40
23208;BMP180;11773;52.570;13.052;2022-07-09T04:17:40;102150.00;;;21.40
23208;BMP180;11773;52.570;13.052;2022-07-09T04:20:11;102150.00;;;21.40
23208;BMP180;11773;52.570;13.052;2022-07-09T04:22:40;102154.00;;;21.40
23208;BMP180;11773;52.570;13.052;2022-07-09T04:25:10;102152.00;;;21.40
23208;BMP180;11773;52.570;13.052;2022-07-09T04:27:39;102156.00;;;21.40
23208;BMP180;11773;52.570;13.052;2022-07-09T04:30:10;102164.00;;;21.40
23208;BMP180;11773;52.570;13.052;2022-07-09T04:32:39;102154.00;;;21.40
23208;BMP180;11773;52.570;13.052;2022-07-09T04:35:09;102160.00;;;21.50
23208;BMP180;11773;52.570;13.052;2022-07-09T04:37:38;102151.00;;;21.50
23208;BMP180;11773;52.570;13.052;2022-07-09T04:40:09;102169.00;;;21.50
23208;BMP180;11773;52.570;13.052;2022-07-09T04:42:38;102150.00;;;21.50
23208;BMP180;11773;52.570;13.052;2022-07-09T04:45:09;102158.00;;;21.50
23208;BMP180;11773;52.570;13.052;2022-07-09T04:47:39;102150.00;;;21.50
23208;BMP180;11773;52.570;13.052;2022-07-09T04:50:09;102150.00;;;21.50
23208;BMP180;11773;52.570;13.052;2022-07-09T04:52:39;102156.00;;;21.50
23208;BMP180;11773;52.570;13.052;2022-07-09T04:55:09;102162.00;;;21.50
23208;BMP180;11773;52.570;13.052;2022-07-09T04:57:39;102156.00;;;21.50
23208;BMP180;11773;52.570;13.052;2022-07-09T05:00:10;102172.00;;;21.50
23208;BMP180;11773;52.570;13.052;2022-07-09T05:02:40;102157.00;;;21.60
23208;BMP180;11773;52.570;13.052;2022-07-09T05:05:10;102171.00;;;21.60
23208;BMP180;11773;52.570;13.052;2022-07-09T05:07:41;102170.00;;;21.60
23208;BMP180;11773;52.570;13.052;2022-07-09T05:10:10;102156.00;;;21.60
23208;BMP180;11773;52.570;13.052;2022-07-09T05:12:40;102151.00;;;21.60
23208;BMP180;11773;52.570;13.052;2022-07-09T05:15:10;102154.00;;;21.60
23208;BMP180;11773;52.570;13.052;2022-07-09T05:17:41;102144.00;;;21.60
23208;BMP180;11773;52.570;13.052;2022-07-09T05:20:11;102153.00;;;21.60
23208;BMP180;11773;52.570;13.052;2022-07-09T05:22:40;102134.00;;;21.60
23208;BMP180;11773;52.570;13.052;2022-07-09T05:25:10;102148.00;;;21.60
23208;BMP180;11773;52.570;13.052;2022-07-09T05:27:47;102134.00;;;21.60
23208;BMP180;11773;52.570;13.052;2022-07-09T05:30:16;102143.00;;;21.70
23208;BMP180;11773;52.570;13.052;2022-07-09T05:32:47;102142.00;;;21.70
23208;BMP180;11773;52.570;13.052;2022-07-09T05:35:17;102136.00;;;21.70
23208;BMP180;11773;52.570;13.052;2022-07-09T05:37:46;102152.00;;;21.80
23208;BMP180;11773;52.570;13.052;2022-07-09T05:40:16;102139.00;;;21.80
23208;BMP180;11773;52.570;13.052;2022-07-09T05:42:45;102161.00;;;21.80
23208;BMP180;11773;52.570;13.052;2022-07-09T05:45:15;102146.00;;;21.90
23208;BMP180;11773;52.570;13.052;2022-07-09T05:47:44;102154.00;;;21.90
23208;BMP180;11773;52.570;13.052;2022-07-09T05:50:14;102135.00;;;21.90
23208;BMP180;11773;52.570;13.052;2022-07-09T05:52:43;102153.00;;;21.90
23208;BMP180;11773;52.570;13.052;2022-07-09T05:55:15;102149.00;;;22.00
23208;BMP180;11773;52.570;13.052;2022-07-09T05:57:44;102130.00;;;22.00
23208;BMP180;11773;52.570;13.052;2022-07-09T06:00:15;102133.00;;;22.00
23208;BMP180;11773;52.570;13.052;2022-07-09T06:02:45;102118.00;;;22.10
23208;BMP180;11773;52.570;13.052;2022-07-09T06:05:14;102126.00;;;22.10
23208;BMP180;11773;52.570;13.052;2022-07-09T06:07:46;102128.00;;;22.10
23208;BMP180;11773;52.570;13.052;2022-07-09T06:10:16;102125.00;;;22.20
23208;BMP180;11773;52.570;13.052;2022-07-09T06:12:45;102117.00;;;22.20
23208;BMP180;11773;52.570;13.052;2022-07-09T06:15:15;102121.00;;;22.20
23208;BMP180;11773;52.570;13.052;2022-07-09T06:17:44;102119.00;;;22.30
23208;BMP180;11773;52.570;13.052;2022-07-09T06:20:14;102114.00;;;22.30
23208;BMP180;11773;52.570;13.052;2022-07-09T06:22:44;102102.00;;;22.40
23208;BMP180;11773;52.570;13.052;2022-07-09T06:25:14;102099.00;;;22.40
23208;BMP180;11773;52.570;13.052;2022-07-09T06:27:43;102115.00;;;22.50
23208;BMP180;11773;52.570;13.052;2022-07-09T06:30:13;102106.00;;;22.50
23208;BMP180;11773;52.570;13.052;2022-07-09T06:32:42;102103.00;;;22.60
23208;BMP180;11773;52.570;13.052;2022-07-09T06:35:12;102102.00;;;22.60
23208;BMP180;11773;52.570;13.052;2022-07-09T06:37:42;102126.00;;;22.70
23208;BMP180;11773;52.570;13.052;2022-07-09T06:40:12;102111.00;;;22.70
23208;BMP180;11773;52.570;13.052;2022-07-09T06:42:42;102115.00;;;22.80
23208;BMP180;11773;52.570;13.052;2022-07-09T06:45:12;102103.00;;;22.90
23208;BMP180;11773;52.570;13.052;2022-07-09T06:47:42;102095.00;;;22.90
23208;BMP180;11773;52.570;13.052;2022-07-09T06:50:12;102096.00;;;22.90
23208;BMP180;11773;52.570;13.052;2022-07-09T06:52:42;102097.00;;;23.00
23208;BMP180;11773;52.570;13.052;2022-07-09T06:55:11;102101.00;;;23.00
23208;BMP180;11773;52.570;13.052;2022-07-09T06:57:41;102106.00;;;23.10
23208;BMP180;11773;52.570;13.052;2022-07-09T07:00:11;102130.00;;;23.10
23208;BMP180;11773;52.570;13.052;2022-07-09T07:02:40;102109.00;;;23.20
23208;BMP180;11773;52.570;13.052;2022-07-09T07:05:10;102114.00;;;23.20
23208;BMP180;11773;52.570;13.052;2022-07-09T07:07:41;102103.00;;;23.20
23208;BMP180;11773;52.570;13.052;2022-07-09T07:10:11;102117.00;;;23.20
23208;BMP180;11773;52.570;13.052;2022-07-09T07:12:40;102107.00;;;23.20
23208;BMP180;11773;52.570;13.052;2022-07-09T07:15:10;102095.00;;;23.20
23208;BMP180;11773;52.570;13.052;2022-07-09T07:17:39;102103.00;;;23.30
23208;BMP180;11773;52.570;13.052;2022-07-09T07:20:10;102108.00;;;23.30
23208;BMP180;11773;52.570;13.052;2022-07-09T07:22:40;102113.00;;;23.30
23208;BMP180;11773;52.570;13.052;2022-07-09T07:25:09;102098.00;;;23.30
23208;BMP180;11773;52.570;13.052;2022-07-09T07:27:39;102096.00;;;23.30
23208;BMP180;11773;52.570;13.052;2022-07-09T07:30:09;102095.00;;;23.40
23208;BMP180;11773;52.570;13.052;2022-07-09T07:32:38;102094.00;;;23.40
23208;BMP180;11773;52.570;13.052;2022-07-09T07:35:08;102089.00;;;23.40
23208;BMP180;11773;52.570;13.052;2022-07-09T07:37:37;102087.00;;;23.50
23208;BMP180;11773;52.570;13.052;2022-07-09T07:40:08;102098.00;;;23.50
23208;BMP180;11773;52.570;13.052;2022-07-09T07:42:39;102092.00;;;23.50
23208;BMP180;11773;52.570;13.052;2022-07-09T07:45:09;102092.00;;;23.50
23208;BMP180;11773;52.570;13.052;2022-07-09T07:47:39;102112.00;;;23.50
23208;BMP180;11773;52.570;13.052;2022-07-09T07:50:09;102090.00;;;23.50
23208;BMP180;11773;52.570;13.052;2022-07-09T07:52:39;102097.00;;;23.60
23208;BMP180;11773;52.570;13.052;2022-07-09T07:55:10;102086.00;;;23.60
23208;BMP180;11773;52.570;13.052;2022-07-09T07:57:39;102087.00;;;23.60
23208;BMP180;11773;52.570;13.052;2022-07-09T08:00:10;102095.00;;;23.60
23208;BMP180;11773;52.570;13.052;2022-07-09T08:02:39;102083.00;;;23.60
23208;BMP180;11773;52.570;13.052;2022-07-09T08:05:09;102084.00;;;23.60
23208;BMP180;11773;52.570;13.052;2022-07-09T08:07:39;102089.00;;;23.70
23208;BMP180;11773;52.570;13.052;2022-07-09T08:10:09;102077.00;;;23.70
23208;BMP180;11773;52.570;13.052;2022-07-09T08:12:39;102075.00;;;23.70
23208;BMP180;11773;52.570;13.052;2022-07-09T08:15:09;102065.00;;;23.70
23208;BMP180;11773;52.570;13.052;2022-07-09T08:17:39;102083.00;;;23.80
23208;BMP180;11773;52.570;13.052;2022-07-09T08:20:11;102064.00;;;23.80
23208;BMP180;11773;52.570;13.052;2022-07-09T08:22:40;102076.00;;;23.80
23208;BMP180;11773;52.570;13.052;2022-07-09T08:25:10;102069.00;;;23.90
23208;BMP180;11773;52.570;13.052;2022-07-09T08:27:41;102076.00;;;23.90
23208;BMP180;11773;52.570;13.052;2022-07-09T08:30:11;102067.00;;;23.90
23208;BMP180;11773;52.570;13.052;2022-07-09T08:32:41;102072.00;;;24.00
23208;BMP180;11773;52.570;13.052;2022-07-09T08:35:10;102068.00;;;24.00
23208;BMP180;11773;52.570;13.052;2022-07-09T08:37:40;102071.00;;;24.00
23208;BMP180;11773;52.570;13.052;2022-07-09T08:40:10;102073.00;;;24.00
23208;BMP180;11773;52.570;13.052;2022-07-09T08:42:41;102075.00;;;24.00
23208;BMP180;11773;52.570;13.052;2022-07-09T08:45:12;102069.00;;;24.00
23208;BMP180;11773;52.570;13.052;2022-07-09T08:47:42;102064.00;;;24.00
23208;BMP180;11773;52.570;13.052;2022-07-09T08:50:12;102068.00;;;24.00
23208;BMP180;11773;52.570;13.052;2022-07-09T08:52:42;102080.00;;;24.00
23208;BMP180;11773;52.570;13.052;2022-07-09T08:55:12;102069.00;;;24.00
23208;BMP180;11773;52.570;13.052;2022-07-09T08:57:42;102063.00;;;24.00
23208;BMP180;11773;52.570;13.052;2022-07-09T09:00:12;102073.00;;;24.00
23208;BMP180;11773;52.570;13.052;2022-07-09T09:02:41;102057.00;;;24.00
23208;BMP180;11773;52.570;13.052;2022-07-09T09:05:15;102066.00;;;24.00
23208;BMP180;11773;52.570;13.052;2022-07-09T09:07:45;102076.00;;;24.00
23208;BMP180;11773;52.570;13.052;2022-07-09T09:10:30;102065.00;;;24.00
23208;BMP180;11773;52.570;13.052;2022-07-09T09:13:01;102077.00;;;23.90
23208;BMP180;11773;52.570;13.052;2022-07-09T09:15:31;102075.00;;;23.90
23208;BMP180;11773;52.570;13.052;2022-07-09T09:18:02;102084.00;;;23.90
23208;BMP180;11773;52.570;13.052;2022-07-09T09:20:32;102081.00;;;23.90
23208;BMP180;11773;52.570;13.052;2022-07-09T09:23:02;102076.00;;;23.90
23208;BMP180;11773;52.570;13.052;2022-07-09T09:25:33;102079.00;;;23.80
23208;BMP180;11773;52.570;13.052;2022-07-09T09:28:03;102058.00;;;23.80
23208;BMP180;11773;52.570;13.052;2022-07-09T09:30:39;102062.00;;;23.90
23208;BMP180;11773;52.570;13.052;2022-07-09T09:33:04;102070.00;;;23.90
23208;BMP180;11773;52.570;13.052;2022-07-09T09:35:36;102064.00;;;23.90
23208;BMP180;11773;52.570;13.052;2022-07-09T09:38:06;102066.00;;;23.90
23208;BMP180;11773;52.570;13.052;2022-07-09T09:40:36;102061.00;;;23.90
23208;BMP180;11773;52.570;13.052;2022-07-09T09:43:09;102047.00;;;23.90
23208;BMP180;11773;52.570;13.052;2022-07-09T09:45:39;102055.00;;;24.00
23208;BMP180;11773;52.570;13.052;2022-07-09T09:48:08;102041.00;;;24.00
23208;BMP180;11773;52.570;13.052;2022-07-09T09:50:38;102049.00;;;24.00
23208;BMP180;11773;52.570;13.052;2022-07-09T09:53:09;102043.00;;;24.00
23208;BMP180;11773;52.570;13.052;2022-07-09T09:55:40;102051.00;;;24.10
23208;BMP180;11773;52.570;13.052;2022-07-09T09:58:11;102045.00;;;24.10
23208;BMP180;11773;52.570;13.052;2022-07-09T10:00:43;102032.00;;;24.20
23208;BMP180;11773;52.570;13.052;2022-07-09T10:03:15;102029.00;;;24.30
23208;BMP180;11773;52.570;13.052;2022-07-09T10:05:45;102031.00;;;24.40
23208;BMP180;11773;52.570;13.052;2022-07-09T10:08:16;102020.00;;;24.40
23208;BMP180;11773;52.570;13.052;2022-07-09T10:10:52;102018.00;;;24.50
23208;BMP180;11773;52.570;13.052;2022-07-09T10:13:22;102025.00;;;24.60
23208;BMP180;11773;52.570;13.052;2022-07-09T10:15:54;102027.00;;;24.70
23208;BMP180;11773;52.570;13.052;2022-07-09T10:18:23;102020.00;;;24.80
23208;BMP180;11773;52.570;13.052;2022-07-09T10:20:57;102019.00;;;24.90
23208;BMP180;11773;52.570;13.052;2022-07-09T10:23:26;102001.00;;;25.00
23208;BMP180;11773;52.570;13.052;2022-07-09T10:25:56;102014.00;;;25.00
23208;BMP180;11773;52.570;13.052;2022-07-09T10:28:25;102019.00;;;25.20
23208;BMP180;11773;52.570;13.052;2022-07-09T10:30:55;102005.00;;;25.20
23208;BMP180;11773;52.570;13.052;2022-07-09T10:33:34;102000.00;;;25.30
23208;BMP180;11773;52.570;13.052;2022-07-09T10:36:16;102008.00;;;25.40
23208;BMP180;11773;52.570;13.052;2022-07-09T10:38:55;102000.00;;;25.50
23208;BMP180;11773;52.570;13.052;2022-07-09T10:41:25;101993.00;;;25.60
23208;BMP180;11773;52.570;13.052;2022-07-09T10:43:54;101985.00;;;25.70
23208;BMP180;11773;52.570;13.052;2022-07-09T10:46:26;101993.00;;;25.80
23208;BMP180;11773;52.570;13.052;2022-07-09T10:48:59;101974.00;;;25.90
23208;BMP180;11773;52.570;13.052;2022-07-09T10:51:30;101986.00;;;26.00
23208;BMP180;11773;52.570;13.052;2022-07-09T10:54:01;101984.00;;;26.00
23208;BMP180;11773;52.570;13.052;2022-07-09T10:56:30;101997.00;;;26.10
23208;BMP180;11773;52.570;13.052;2022-07-09T10:59:00;101983.00;;;26.20
23208;BMP180;11773;52.570;13.052;2022-07-09T11:01:30;101993.00;;;26.20
23208;BMP180;11773;52.570;13.052;2022-07-09T11:04:00;101992.00;;;26.30
23208;BMP180;11773;52.570;13.052;2022-07-09T11:06:31;101985.00;;;26.40
23208;BMP180;11773;52.570;13.052;2022-07-09T11:09:10;101977.00;;;26.40
23208;BMP180;11773;52.570;13.052;2022-07-09T11:11:33;101977.00;;;26.50
23208;BMP180;11773;52.570;13.052;2022-07-09T11:14:03;101978.00;;;26.60
23208;BMP180;11773;52.570;13.052;2022-07-09T11:16:32;101977.00;;;26.70
23208;BMP180;11773;52.570;13.052;2022-07-09T11:19:17;101958.00;;;26.80
23208;BMP180;11773;52.570;13.052;2022-07-09T11:21:48;101957.00;;;26.80
23208;BMP180;11773;52.570;13.052;2022-07-09T11:24:37;101955.00;;;26.90
23208;BMP180;11773;52.570;13.052;2022-07-09T11:27:09;101955.00;;;26.90
23208;BMP180;11773;52.570;13.052;2022-07-09T11:29:38;101972.00;;;27.00
23208;BMP180;11773;52.570;13.052;2022-07-09T11:32:10;101962.00;;;27.00
23208;BMP180;11773;52.570;13.052;2022-07-09T11:34:50;101950.00;;;27.10
23208;BMP180;11773;52.570;13.052;2022-07-09T11:37:25;101961.00;;;27.10
23208;BMP180;11773;52.570;13.052;2022-07-09T11:39:54;101951.00;;;27.10
23208;BMP180;11773;52.570;13.052;2022-07-09T11:42:24;101958.00;;;27.10
23208;BMP180;11773;52.570;13.052;2022-07-09T11:44:58;101963.00;;;27.20
23208;BMP180;11773;52.570;13.052;2022-07-09T11:47:37;101961.00;;;27.20
23208;BMP180;11773;52.570;13.052;2022-07-09T11:50:10;101955.00;;;27.20
23208;BMP180;11773;52.570;13.052;2022-07-09T11:52:51;101949.00;;;27.20
23208;BMP180;11773;52.570;13.052;2022-07-09T11:55:30;101948.00;;;27.20
23208;BMP180;11773;52.570;13.052;2022-07-09T11:58:07;101947.00;;;27.20
23208;BMP180;11773;52.570;13.052;2022-07-09T12:00:41;101936.00;;;27.20
23208;BMP180;11773;52.570;13.052;2022-07-09T12:03:11;101941.00;;;27.30
23208;BMP180;11773;52.570;13.052;2022-07-09T12:05:40;101926.00;;;27.30
23208;BMP180;11773;52.570;13.052;2022-07-09T12:08:10;101926.00;;;27.30
23208;BMP180;11773;52.570;13.052;2022-07-09T12:10:40;101933.00;;;27.30
23208;BMP180;11773;52.570;13.052;2022-07-09T12:13:09;101935.00;;;27.30
23208;BMP180;11773;52.570;13.052;2022-07-09T12:15:39;101939.00;;;27.30
23208;BMP180;11773;52.570;13.052;2022-07-09T12:18:08;101935.00;;;27.30
23208;BMP180;11773;52.570;13.052;2022-07-09T12:20:38;101937.00;;;27.20
23208;BMP180;11773;52.570;13.052;2022-07-09T12:23:07;101963.00;;;27.20
23208;BMP180;11773;52.570;13.052;2022-07-09T12:25:37;101965.00;;;27.20
23208;BMP180;11773;52.570;13.052;2022-07-09T12:28:07;101952.00;;;27.20
23208;BMP180;11773;52.570;13.052;2022-07-09T12:30:36;101946.00;;;27.10
23208;BMP180;11773;52.570;13.052;2022-07-09T12:33:07;101962.00;;;27.00
23208;BMP180;11773;52.570;13.052;2022-07-09T12:35:37;101951.00;;;27.00
23208;BMP180;11773;52.570;13.052;2022-07-09T12:38:06;101946.00;;;26.90
23208;BMP180;11773;52.570;13.052;2022-07-09T12:40:36;101933.00;;;26.80
23208;BMP180;11773;52.570;13.052;2022-07-09T12:43:05;101933.00;;;26.80
23208;BMP180;11773;52.570;13.052;2022-07-09T12:45:35;101921.00;;;26.70
23208;BMP180;11773;52.570;13.052;2022-07-09T12:48:04;101949.00;;;26.60
23208;BMP180;11773;52.570;13.052;2022-07-09T12:50:34;101948.00;;;26.50
23208;BMP180;11773;52.570;13.052;2022-07-09T12:53:03;101937.00;;;26.50
23208;BMP180;11773;52.570;13.052;2022-07-09T12:55:33;101929.00;;;26.40
23208;BMP180;11773;52.570;13.052;2022-07-09T12:58:05;101931.00;;;26.30
23208;BMP180;11773;52.570;13.052;2022-07-09T13:00:34;101926.00;;;26.30
23208;BMP180;11773;52.570;13.052;2022-07-09T13:03:04;101912.00;;;26.20
23208;BMP180;11773;52.570;13.052;2022-07-09T13:05:34;101900.00;;;26.20
23208;BMP180;11773;52.570;13.052;2022-07-09T13:08:03;101895.00;;;26.10
23208;BMP180;11773;52.570;13.052;2022-07-09T13:10:33;101893.00;;;26.10
23208;BMP180;11773;52.570;13.052;2022-07-09T13:13:03;101890.00;;;26.00
23208;BMP180;11773;52.570;13.052;2022-07-09T13:15:32;101889.00;;;26.00
23208;BMP180;11773;52.570;13.052;2022-07-09T13:18:02;101888.00;;;26.00
23208;BMP180;11773;52.570;13.052;2022-07-09T13:20:32;101887.00;;;26.00
23208;BMP180;11773;52.570;13.052;2022-07-09T13:23:03;101885.00;;;26.00
23208;BMP180;11773;52.570;13.052;2022-07-09T13:25:33;101886.00;;;26.00
23208;BMP180;11773;52.570;13.052;2022-07-09T13:28:02;101865.00;;;25.90
23208;BMP180;11773;52.570;13.052;2022-07-09T13:30:32;101874.00;;;25.90
23208;BMP180;11773;52.570;13.052;2022-07-09T13:33:02;101864.00;;;25.90
23208;BMP180;11773;52.570;13.052;2022-07-09T13:35:31;101864.00;;;25.90
23208;BMP180;11773;52.570;13.052;2022-07-09T13:38:01;101863.00;;;25.90
23208;BMP180;11773;52.570;13.052;2022-07-09T13:40:30;101853.00;;;25.90
23208;BMP180;11773;52.570;13.052;2022-07-09T13:43:00;101861.00;;;25.90
23208;BMP180;11773;52.570;13.052;2022-07-09T13:45:29;101871.00;;;25.90
23208;BMP180;11773;52.570;13.052;2022-07-09T13:47:59;101858.00;;;25.90
23208;BMP180;11773;52.570;13.052;2022-07-09T13:50:28;101865.00;;;25.90
23208;BMP180;11773;52.570;13.052;2022-07-09T13:52:58;101859.00;;;25.90
23208;BMP180;11773;52.570;13.052;2022-07-09T13:55:30;101846.00;;;25.90
23208;BMP180;11773;52.570;13.052;2022-07-09T13:58:00;101856.00;;;25.90
23208;BMP180;11773;52.570;13.052;2022-07-09T14:00:29;101851.00;;;25.90